createdAt,value
2018-11-02T00:01:31.868Z,79.10
2018-11-02T00:07:01.252Z,79.50
2018-11-02T00:12:30.536Z,79.70
2018-11-02T00:17:59.732Z,79.90
2018-11-02T00:23:29.089Z,80.10
2018-11-02T00:28:58.328Z,80.20
2018-11-02T00:34:27.824Z,80.10
2018-11-02T00:39:57.064Z,80.40
2018-11-02T00:45:26.517Z,80.50
2018-11-02T00:50:55.788Z,80.50
2018-11-02T00:56:25.103Z,80.40
2018-11-02T01:01:54.314Z,80.40
2018-11-02T01:07:23.600Z,80.30
2018-11-02T01:12:52.880Z,80.30
2018-11-02T01:18:22.112Z,80.20
2018-11-02T01:23:51.341Z,80.20
2018-11-02T01:29:20.527Z,80.30
2018-11-02T01:34:49.760Z,80.30
2018-11-02T01:40:18.988Z,80.40
2018-11-02T01:45:48.549Z,80.50
2018-11-02T01:51:18.502Z,80.60
2018-11-02T01:56:47.728Z,80.70
2018-11-02T02:02:16.990Z,80.90
2018-11-02T02:07:46.298Z,81.00
2018-11-02T02:13:15.524Z,81.20
2018-11-02T02:18:44.780Z,81.20
2018-11-02T02:24:14.014Z,81.30
2018-11-02T02:29:43.485Z,81.50
2018-11-02T02:35:12.726Z,81.50
2018-11-02T02:40:42.027Z,81.60
2018-11-02T02:46:11.966Z,81.50
2018-11-02T02:51:41.281Z,81.60
2018-11-02T02:57:10.497Z,81.40
2018-11-02T03:02:39.803Z,81.40
2018-11-02T03:08:09.099Z,81.30
2018-11-02T03:13:38.336Z,81.40
2018-11-02T03:19:07.662Z,81.20
2018-11-02T03:24:37.028Z,81.20
2018-11-02T03:30:07.655Z,82.00
2018-11-02T03:35:36.887Z,81.20
2018-11-02T03:41:06.372Z,81.30
2018-11-02T03:46:35.611Z,81.20
2018-11-02T03:52:05.140Z,81.40
2018-11-02T03:57:34.393Z,81.40
2018-11-02T04:03:03.641Z,81.40
2018-11-02T04:08:32.909Z,81.40
2018-11-02T04:14:04.345Z,81.60
2018-11-02T04:19:33.532Z,81.60
2018-11-02T04:25:02.865Z,81.50
2018-11-02T04:30:32.100Z,81.60
2018-11-02T04:36:02.430Z,81.40
2018-11-02T04:41:31.624Z,81.60
2018-11-02T04:47:00.843Z,81.50
2018-11-02T04:52:30.115Z,81.60
2018-11-02T04:57:59.354Z,81.60
2018-11-02T05:03:28.625Z,81.70
2018-11-02T05:08:57.846Z,81.70
2018-11-02T05:14:27.195Z,81.70
2018-11-02T05:19:56.469Z,81.80
2018-11-02T05:25:25.801Z,81.80
2018-11-02T05:30:55.100Z,81.80
2018-11-02T05:36:24.432Z,81.80
2018-11-02T05:41:53.801Z,81.90
2018-11-02T05:47:23.306Z,82.00
2018-11-02T05:52:53.140Z,82.00
2018-11-02T05:58:22.745Z,82.10
2018-11-02T06:03:52.314Z,82.10
2018-11-02T06:09:23.041Z,82.10
2018-11-02T06:14:52.482Z,82.10
2018-11-02T06:20:23.775Z,82.20
2018-11-02T06:25:53.224Z,82.40
2018-11-02T06:31:22.496Z,82.30
2018-11-02T06:36:51.771Z,82.10
2018-11-02T06:42:21.020Z,82.40
2018-11-02T06:47:50.388Z,82.60
2018-11-02T06:53:19.736Z,82.50
2018-11-02T06:58:49.291Z,82.60
2018-11-02T07:04:18.556Z,82.70
2018-11-02T07:09:47.912Z,82.70
2018-11-02T07:15:17.338Z,82.80
2018-11-02T07:20:47.944Z,82.90
2018-11-02T07:26:17.872Z,83.00
2018-11-02T07:31:48.045Z,83.10
2018-11-02T07:37:17.837Z,83.20
2018-11-02T07:42:47.184Z,83.10
2018-11-02T07:48:16.600Z,83.10
2018-11-02T07:53:46.080Z,83.10
2018-11-02T07:59:15.361Z,83.10
2018-11-02T08:04:44.751Z,83.00
2018-11-02T08:10:14.055Z,82.90
2018-11-02T08:15:43.299Z,83.00
2018-11-02T08:21:12.796Z,82.90
2018-11-02T08:26:43.135Z,82.70
2018-11-02T08:32:12.526Z,82.70
2018-11-02T08:37:43.140Z,82.50
2018-11-02T08:43:12.485Z,82.50
2018-11-02T08:48:41.760Z,82.50
2018-11-02T08:54:11.171Z,82.10
2018-11-02T08:59:40.942Z,82.10
2018-11-02T09:05:11.302Z,82.00
2018-11-02T09:10:40.637Z,81.60
2018-11-02T09:16:10.967Z,81.10
2018-11-02T09:21:40.865Z,80.90
2018-11-02T09:27:10.161Z,79.50
2018-11-02T09:32:39.500Z,79.20
2018-11-02T09:38:08.917Z,78.80
2018-11-02T09:43:39.136Z,78.80
2018-11-02T09:49:08.616Z,78.60
2018-11-02T09:54:37.896Z,77.70
2018-11-02T10:00:09.063Z,77.00
2018-11-02T10:05:38.644Z,76.70
2018-11-02T10:11:08.077Z,75.80
2018-11-02T10:16:37.512Z,75.40
2018-11-02T10:22:06.855Z,75.40
2018-11-02T10:27:36.964Z,75.00
2018-11-02T10:33:06.206Z,74.60
2018-11-02T10:38:35.795Z,73.70
2018-11-02T10:44:05.405Z,73.50
2018-11-02T10:49:34.857Z,73.00
2018-11-02T10:55:04.124Z,72.50
2018-11-02T11:00:38.601Z,72.50
2018-11-02T11:06:07.804Z,72.50
2018-11-02T11:11:37.228Z,72.70
2018-11-02T11:17:06.613Z,72.90
2018-11-02T11:22:35.920Z,72.70
2018-11-02T11:28:05.732Z,72.10
2018-11-02T11:33:35.325Z,72.80
2018-11-02T11:39:10.226Z,72.50
2018-11-02T11:44:39.537Z,72.80
2018-11-02T11:50:20.520Z,72.70
2018-11-02T11:55:49.846Z,72.80
2018-11-02T12:01:19.247Z,73.10
2018-11-02T12:06:48.556Z,73.40
2018-11-02T12:12:17.968Z,73.70
2018-11-02T12:17:47.604Z,73.80
2018-11-02T12:23:16.949Z,73.90
2018-11-02T12:28:46.277Z,74.10
2018-11-02T12:34:15.523Z,74.10
2018-11-02T12:39:44.917Z,74.40
2018-11-02T12:45:15.469Z,74.40
2018-11-02T12:50:44.893Z,74.60
2018-11-02T12:56:14.300Z,74.70
2018-11-02T13:01:43.616Z,74.80
2018-11-02T13:07:12.977Z,74.80
2018-11-02T13:12:42.529Z,75.20
2018-11-02T13:18:11.974Z,76.70
2018-11-02T13:23:41.271Z,76.10
2018-11-02T13:29:10.665Z,75.50
2018-11-02T13:34:40.188Z,75.30
2018-11-02T13:40:11.203Z,75.30
2018-11-02T13:45:40.507Z,75.40
2018-11-02T13:51:09.790Z,75.20
2018-11-02T13:56:39.216Z,75.40
2018-11-02T14:02:09.546Z,75.80
2018-11-02T14:07:38.897Z,75.00
2018-11-02T14:13:08.286Z,75.30
2018-11-02T14:18:37.898Z,75.50
2018-11-02T14:24:07.255Z,75.80
2018-11-02T14:29:37.803Z,76.10
2018-11-02T14:35:07.569Z,76.50
2018-11-02T14:40:37.126Z,76.20
2018-11-02T14:46:06.551Z,76.40
2018-11-02T14:51:35.991Z,76.30
2018-11-02T14:57:05.448Z,76.60
2018-11-02T15:02:34.792Z,76.80
2018-11-02T15:08:04.155Z,77.10
2018-11-02T15:13:33.609Z,77.20
2018-11-02T15:19:02.986Z,77.00
2018-11-02T15:24:32.368Z,77.10
2018-11-02T15:30:01.690Z,77.20
2018-11-02T15:35:30.952Z,77.60
2018-11-02T15:41:00.304Z,77.20
2018-11-02T15:46:29.711Z,77.40
2018-11-02T15:51:59.312Z,77.80
2018-11-02T15:57:28.676Z,77.80
2018-11-02T16:02:58.164Z,77.90
2018-11-02T16:08:27.785Z,78.10
2018-11-02T16:13:57.372Z,79.40
2018-11-02T16:19:26.785Z,79.90
2018-11-02T16:24:56.136Z,80.10
2018-11-02T16:30:25.465Z,80.40
2018-11-02T16:35:54.886Z,80.80
2018-11-02T16:41:24.624Z,80.90
2018-11-02T16:46:53.832Z,81.10
2018-11-02T16:52:23.067Z,81.20
2018-11-02T16:57:52.558Z,81.30
2018-11-02T17:03:21.791Z,81.50
2018-11-02T17:08:51.134Z,81.50
2018-11-02T17:14:20.456Z,81.50
2018-11-02T17:19:49.779Z,81.90
2018-11-02T17:25:19.032Z,82.10
2018-11-02T17:30:48.353Z,82.20
2018-11-02T17:36:17.712Z,82.30
2018-11-02T17:41:47.064Z,82.50
2018-11-02T17:47:16.532Z,82.60
2018-11-02T17:52:45.819Z,82.70
2018-11-02T17:58:15.118Z,83.00
2018-11-02T18:03:44.694Z,83.20
2018-11-02T18:09:13.956Z,83.30
2018-11-02T18:14:43.304Z,83.30
2018-11-02T18:20:14.900Z,83.60
2018-11-02T18:25:44.580Z,83.70
2018-11-02T18:31:13.892Z,84.40
2018-11-02T18:36:43.255Z,83.90
2018-11-02T18:42:12.516Z,84.10
2018-11-02T18:47:44.981Z,84.20
2018-11-02T18:53:14.276Z,84.40
2018-11-02T18:58:43.743Z,84.50
2018-11-02T19:04:13.175Z,84.60
2018-11-02T19:09:42.436Z,84.80
2018-11-02T19:15:14.274Z,84.80
2018-11-02T19:20:43.676Z,85.00
2018-11-02T19:26:13.176Z,85.80
2018-11-02T19:31:42.487Z,85.20
2018-11-02T19:37:11.765Z,85.30
2018-11-02T19:42:41.083Z,85.50
2018-11-02T19:48:10.670Z,85.60
2018-11-02T19:53:40.162Z,85.60
2018-11-02T19:59:09.492Z,85.70
2018-11-02T20:04:39.095Z,85.70
2018-11-02T20:10:09.178Z,85.90
2018-11-02T20:15:38.472Z,85.90
2018-11-02T20:21:07.859Z,85.80
2018-11-02T20:26:37.285Z,85.90
2018-11-02T20:32:06.815Z,86.00
2018-11-02T20:37:36.917Z,86.10
2018-11-02T20:43:06.309Z,86.00
2018-11-02T20:48:35.657Z,86.00
2018-11-02T20:54:05.303Z,86.30
2018-11-02T20:59:34.662Z,86.30
2018-11-02T21:05:04.127Z,86.30
2018-11-02T21:10:33.448Z,86.40
2018-11-02T21:16:02.944Z,86.50
2018-11-02T21:21:32.233Z,86.50
2018-11-02T21:27:01.517Z,86.80
2018-11-02T21:32:30.916Z,86.80
2018-11-02T21:38:00.184Z,86.80
2018-11-02T21:43:29.568Z,86.90
2018-11-02T21:48:58.824Z,87.10
2018-11-02T21:54:28.111Z,87.20
2018-11-02T21:59:57.788Z,87.30
2018-11-02T22:05:27.215Z,87.40
2018-11-02T22:10:56.570Z,87.50
2018-11-02T22:16:25.832Z,87.70
2018-11-02T22:21:55.181Z,87.70
2018-11-02T22:27:24.461Z,87.80
2018-11-02T22:32:53.756Z,88.00
2018-11-02T22:38:23.103Z,88.00
2018-11-02T22:43:52.360Z,88.10
2018-11-02T22:49:21.840Z,88.10
2018-11-02T22:54:51.043Z,88.00
2018-11-02T23:00:20.556Z,88.20
2018-11-02T23:05:49.987Z,88.20
2018-11-02T23:11:20.220Z,88.20
2018-11-02T23:16:50.946Z,88.30
2018-11-02T23:22:20.599Z,88.30
2018-11-02T23:27:49.924Z,88.30
2018-11-02T23:33:19.393Z,88.40
2018-11-02T23:38:48.672Z,88.30
2018-11-02T23:44:17.994Z,88.30
2018-11-02T23:49:47.479Z,88.00
2018-11-02T23:55:16.786Z,88.40
